sensor_id;sensor_type;location;lat;lon;timestamp;pressure;altitude;pressure_sealevel;temperature;humidity
69127;BME280;56688;50.234;19.292;2022-12-20T00:01:21;99537.65;;;-0.05;71.34
69127;BME280;56688;50.234;19.292;2022-12-20T00:03:49;99538.28;;;-0.04;70.70
69127;BME280;56688;50.234;19.292;2022-12-20T00:06:17;99540.23;;;-0.05;70.66
69127;BME280;56688;50.234;19.292;2022-12-20T00:08:45;99544.81;;;-0.05;70.76
69127;BME280;56688;50.234;19.292;2022-12-20T00:11:13;99541.07;;;-0.07;70.43
69127;BME280;56688;50.234;19.292;2022-12-20T00:13:39;99541.63;;;-0.04;70.43
69127;BME280;56688;50.234;19.292;2022-12-20T00:18:35;99535.34;;;-0.02;70.52
69127;BME280;56688;50.234;19.292;2022-12-20T00:21:04;99535.89;;;-0.03;70.51
69127;BME280;56688;50.234;19.292;2022-12-20T00:23:32;99528.40;;;-0.03;70.72
69127;BME280;56688;50.234;19.292;2022-12-20T00:26:01;99521.10;;;-0.04;70.55
69127;BME280;56688;50.234;19.292;2022-12-20T00:28:29;99516.86;;;-0.06;70.69
69127;BME280;56688;50.234;19.292;2022-12-20T00:30:57;99517.27;;;-0.07;70.65
69127;BME280;56688;50.234;19.292;2022-12-20T00:33:24;99516.23;;;-0.05;70.92
69127;BME280;56688;50.234;19.292;2022-12-20T00:35:53;99513.16;;;-0.00;70.57
69127;BME280;56688;50.234;19.292;2022-12-20T00:38:22;99511.02;;;0.03;70.63
69127;BME280;56688;50.234;19.292;2022-12-20T00:43:32;99520.23;;;0.07;70.34
69127;BME280;56688;50.234;19.292;2022-12-20T00:46:00;99515.84;;;0.07;70.39
69127;BME280;56688;50.234;19.292;2022-12-20T00:48:28;99518.63;;;0.07;70.53
69127;BME280;56688;50.234;19.292;2022-12-20T00:50:58;99517.11;;;0.06;70.26
69127;BME280;56688;50.234;19.292;2022-12-20T00:53:26;99510.98;;;0.07;70.45
69127;BME280;56688;50.234;19.292;2022-12-20T00:55:53;99515.04;;;0.09;70.10
69127;BME280;56688;50.234;19.292;2022-12-20T00:58:20;99518.90;;;0.11;70.08
69127;BME280;56688;50.234;19.292;2022-12-20T01:00:48;99518.52;;;0.15;70.27
69127;BME280;56688;50.234;19.292;2022-12-20T01:03:22;99513.21;;;0.16;70.49
69127;BME280;56688;50.234;19.292;2022-12-20T01:05:54;99507.25;;;0.16;70.37
69127;BME280;56688;50.234;19.292;2022-12-20T01:08:22;99499.57;;;0.15;70.39
69127;BME280;56688;50.234;19.292;2022-12-20T01:11:07;99495.42;;;0.14;70.74
69127;BME280;56688;50.234;19.292;2022-12-20T01:13:36;99490.77;;;0.16;70.92
69127;BME280;56688;50.234;19.292;2022-12-20T01:16:07;99477.75;;;0.19;70.91
69127;BME280;56688;50.234;19.292;2022-12-20T01:18:36;99476.13;;;0.23;70.70
69127;BME280;56688;50.234;19.292;2022-12-20T01:21:06;99473.09;;;0.26;70.90
69127;BME280;56688;50.234;19.292;2022-12-20T01:23:34;99473.22;;;0.30;70.64
69127;BME280;56688;50.234;19.292;2022-12-20T01:26:02;99490.02;;;0.33;70.90
69127;BME280;56688;50.234;19.292;2022-12-20T01:28:31;99510.85;;;0.36;70.98
69127;BME280;56688;50.234;19.292;2022-12-20T01:30:58;99519.33;;;0.37;71.49
69127;BME280;56688;50.234;19.292;2022-12-20T01:33:25;99513.29;;;0.39;70.95
69127;BME280;56688;50.234;19.292;2022-12-20T01:35:58;99504.90;;;0.41;70.65
69127;BME280;56688;50.234;19.292;2022-12-20T01:38:26;99506.38;;;0.43;70.69
69127;BME280;56688;50.234;19.292;2022-12-20T01:40:54;99498.61;;;0.43;70.82
69127;BME280;56688;50.234;19.292;2022-12-20T01:43:22;99488.27;;;0.43;70.52
69127;BME280;56688;50.234;19.292;2022-12-20T01:45:49;99485.70;;;0.42;70.83
69127;BME280;56688;50.234;19.292;2022-12-20T01:48:20;99486.30;;;0.44;70.70
69127;BME280;56688;50.234;19.292;2022-12-20T01:50:49;99478.13;;;0.43;70.38
69127;BME280;56688;50.234;19.292;2022-12-20T01:53:17;99479.66;;;0.41;70.80
69127;BME280;56688;50.234;19.292;2022-12-20T01:55:46;99481.39;;;0.42;70.72
69127;BME280;56688;50.234;19.292;2022-12-20T01:58:15;99470.55;;;0.43;70.81
69127;BME280;56688;50.234;19.292;2022-12-20T02:00:43;99461.29;;;0.46;70.88
69127;BME280;56688;50.234;19.292;2022-12-20T02:03:13;99459.64;;;0.49;71.15
69127;BME280;56688;50.234;19.292;2022-12-20T02:05:43;99465.57;;;0.53;70.95
69127;BME280;56688;50.234;19.292;2022-12-20T02:08:15;99469.15;;;0.54;70.80
69127;BME280;56688;50.234;19.292;2022-12-20T02:13:50;99471.33;;;0.53;70.96
69127;BME280;56688;50.234;19.292;2022-12-20T02:16:24;99469.95;;;0.53;71.10
69127;BME280;56688;50.234;19.292;2022-12-20T02:19:00;99455.16;;;0.51;71.18
69127;BME280;56688;50.234;19.292;2022-12-20T02:24:54;99463.54;;;0.49;71.19
69127;BME280;56688;50.234;19.292;2022-12-20T02:27:40;99470.23;;;0.54;71.46
69127;BME280;56688;50.234;19.292;2022-12-20T02:30:20;99475.04;;;0.61;71.59
69127;BME280;56688;50.234;19.292;2022-12-20T02:32:59;99472.61;;;0.68;72.10
69127;BME280;56688;50.234;19.292;2022-12-20T02:35:33;99461.90;;;0.73;72.19
69127;BME280;56688;50.234;19.292;2022-12-20T02:38:24;99459.39;;;0.77;71.60
69127;BME280;56688;50.234;19.292;2022-12-20T02:40:55;99464.04;;;0.81;71.78
69127;BME280;56688;50.234;19.292;2022-12-20T02:43:26;99462.58;;;0.84;71.76
69127;BME280;56688;50.234;19.292;2022-12-20T02:46:10;99445.24;;;0.84;71.52
69127;BME280;56688;50.234;19.292;2022-12-20T02:48:39;99432.15;;;0.83;71.08
69127;BME280;56688;50.234;19.292;2022-12-20T02:51:07;99434.89;;;0.81;71.31
69127;BME280;56688;50.234;19.292;2022-12-20T02:53:35;99436.40;;;0.77;70.91
69127;BME280;56688;50.234;19.292;2022-12-20T02:56:11;99434.17;;;0.76;70.56
69127;BME280;56688;50.234;19.292;2022-12-20T03:01:44;99459.52;;;0.75;70.64
69127;BME280;56688;50.234;19.292;2022-12-20T03:04:13;99446.70;;;0.75;70.70
69127;BME280;56688;50.234;19.292;2022-12-20T03:07:01;99446.27;;;0.74;70.34
69127;BME280;56688;50.234;19.292;2022-12-20T03:09:30;99433.27;;;0.69;70.61
69127;BME280;56688;50.234;19.292;2022-12-20T03:11:57;99434.45;;;0.62;70.68
69127;BME280;56688;50.234;19.292;2022-12-20T03:14:24;99425.83;;;0.54;70.80
69127;BME280;56688;50.234;19.292;2022-12-20T03:16:52;99434.27;;;0.49;71.21
69127;BME280;56688;50.234;19.292;2022-12-20T03:19:19;99426.76;;;0.46;71.28
69127;BME280;56688;50.234;19.292;2022-12-20T03:21:46;99425.80;;;0.44;71.19
69127;BME280;56688;50.234;19.292;2022-12-20T03:24:13;99425.44;;;0.42;71.23
69127;BME280;56688;50.234;19.292;2022-12-20T03:26:40;99413.26;;;0.38;71.68
69127;BME280;56688;50.234;19.292;2022-12-20T03:29:07;99430.89;;;0.34;71.50
69127;BME280;56688;50.234;19.292;2022-12-20T03:31:35;99433.94;;;0.30;72.08
69127;BME280;56688;50.234;19.292;2022-12-20T03:34:03;99433.46;;;0.30;71.98
69127;BME280;56688;50.234;19.292;2022-12-20T03:36:30;99423.79;;;0.30;72.34
69127;BME280;56688;50.234;19.292;2022-12-20T03:39:00;99420.52;;;0.32;72.16
69127;BME280;56688;50.234;19.292;2022-12-20T03:41:29;99424.25;;;0.31;72.24
69127;BME280;56688;50.234;19.292;2022-12-20T03:43:56;99413.94;;;0.30;72.23
69127;BME280;56688;50.234;19.292;2022-12-20T03:46:24;99412.67;;;0.28;72.14
69127;BME280;56688;50.234;19.292;2022-12-20T03:48:52;99407.73;;;0.23;72.45
69127;BME280;56688;50.234;19.292;2022-12-20T03:51:19;99406.66;;;0.21;72.23
69127;BME280;56688;50.234;19.292;2022-12-20T03:53:45;99410.59;;;0.20;72.50
69127;BME280;56688;50.234;19.292;2022-12-20T03:56:12;99403.20;;;0.18;72.59
69127;BME280;56688;50.234;19.292;2022-12-20T03:58:39;99415.09;;;0.16;72.96
69127;BME280;56688;50.234;19.292;2022-12-20T04:01:23;99416.20;;;0.12;72.85
69127;BME280;56688;50.234;19.292;2022-12-20T04:03:51;99421.73;;;0.10;72.95
69127;BME280;56688;50.234;19.292;2022-12-20T04:06:19;99419.73;;;0.06;72.77
69127;BME280;56688;50.234;19.292;2022-12-20T04:08:46;99416.06;;;0.01;73.20
69127;BME280;56688;50.234;19.292;2022-12-20T04:14:06;99418.02;;;-0.05;73.19
69127;BME280;56688;50.234;19.292;2022-12-20T04:16:34;99417.60;;;-0.04;73.33
69127;BME280;56688;50.234;19.292;2022-12-20T04:19:01;99415.63;;;-0.04;73.40
69127;BME280;56688;50.234;19.292;2022-12-20T04:21:33;99413.66;;;-0.03;73.38
69127;BME280;56688;50.234;19.292;2022-12-20T04:24:03;99419.84;;;-0.04;73.20
69127;BME280;56688;50.234;19.292;2022-12-20T04:26:38;99430.29;;;-0.06;73.26
69127;BME280;56688;50.234;19.292;2022-12-20T04:29:04;99432.65;;;-0.07;73.27
69127;BME280;56688;50.234;19.292;2022-12-20T04:31:32;99428.77;;;-0.09;73.31
69127;BME280;56688;50.234;19.292;2022-12-20T04:33:59;99425.36;;;-0.10;73.12
69127;BME280;56688;50.234;19.292;2022-12-20T04:36:27;99427.88;;;-0.12;73.16
69127;BME280;56688;50.234;19.292;2022-12-20T04:38:54;99433.48;;;-0.11;72.85
69127;BME280;56688;50.234;19.292;2022-12-20T04:41:20;99431.27;;;-0.12;72.79
69127;BME280;56688;50.234;19.292;2022-12-20T04:43:54;99428.02;;;-0.13;72.94
69127;BME280;56688;50.234;19.292;2022-12-20T04:46:24;99428.40;;;-0.17;73.02
69127;BME280;56688;50.234;19.292;2022-12-20T04:48:53;99430.12;;;-0.19;73.36
69127;BME280;56688;50.234;19.292;2022-12-20T04:51:25;99426.35;;;-0.20;73.33
69127;BME280;56688;50.234;19.292;2022-12-20T04:53:53;99423.48;;;-0.19;73.43
69127;BME280;56688;50.234;19.292;2022-12-20T04:56:27;99422.11;;;-0.20;73.55
69127;BME280;56688;50.234;19.292;2022-12-20T04:58:57;99421.90;;;-0.19;73.58
69127;BME280;56688;50.234;19.292;2022-12-20T05:01:25;99422.77;;;-0.19;73.41
69127;BME280;56688;50.234;19.292;2022-12-20T05:03:54;99417.64;;;-0.21;73.59
69127;BME280;56688;50.234;19.292;2022-12-20T05:06:24;99411.63;;;-0.20;73.69
69127;BME280;56688;50.234;19.292;2022-12-20T05:08:51;99405.36;;;-0.20;73.58
69127;BME280;56688;50.234;19.292;2022-12-20T05:11:18;99410.09;;;-0.18;73.74
69127;BME280;56688;50.234;19.292;2022-12-20T05:13:45;99409.55;;;-0.18;73.56
69127;BME280;56688;50.234;19.292;2022-12-20T05:16:14;99406.29;;;-0.19;73.48
69127;BME280;56688;50.234;19.292;2022-12-20T05:18:42;99393.78;;;-0.23;73.94
69127;BME280;56688;50.234;19.292;2022-12-20T05:21:15;99389.52;;;-0.22;73.79
69127;BME280;56688;50.234;19.292;2022-12-20T05:23:57;99395.58;;;-0.21;73.89
69127;BME280;56688;50.234;19.292;2022-12-20T05:26:54;99386.98;;;-0.21;73.90
69127;BME280;56688;50.234;19.292;2022-12-20T05:29:21;99382.78;;;-0.20;73.89
69127;BME280;56688;50.234;19.292;2022-12-20T05:31:47;99378.81;;;-0.21;74.06
69127;BME280;56688;50.234;19.292;2022-12-20T05:34:15;99381.88;;;-0.20;73.92
69127;BME280;56688;50.234;19.292;2022-12-20T05:36:45;99382.36;;;-0.17;73.70
69127;BME280;56688;50.234;19.292;2022-12-20T05:39:12;99377.54;;;-0.16;73.62
69127;BME280;56688;50.234;19.292;2022-12-20T05:41:40;99389.54;;;-0.14;73.91
69127;BME280;56688;50.234;19.292;2022-12-20T05:44:08;99392.49;;;-0.14;73.75
69127;BME280;56688;50.234;19.292;2022-12-20T05:46:37;99386.93;;;-0.14;73.83
69127;BME280;56688;50.234;19.292;2022-12-20T05:49:08;99382.40;;;-0.15;73.49
69127;BME280;56688;50.234;19.292;2022-12-20T05:51:35;99383.67;;;-0.13;73.31
69127;BME280;56688;50.234;19.292;2022-12-20T05:54:15;99395.75;;;-0.13;73.27
69127;BME280;56688;50.234;19.292;2022-12-20T05:56:48;99389.56;;;-0.14;73.35
69127;BME280;56688;50.234;19.292;2022-12-20T05:59:17;99384.26;;;-0.17;73.37
69127;BME280;56688;50.234;19.292;2022-12-20T06:01:45;99384.75;;;-0.19;73.54
69127;BME280;56688;50.234;19.292;2022-12-20T06:04:13;99384.88;;;-0.21;73.41
69127;BME280;56688;50.234;19.292;2022-12-20T06:06:41;99378.98;;;-0.21;73.32
69127;BME280;56688;50.234;19.292;2022-12-20T06:09:12;99382.64;;;-0.21;73.22
69127;BME280;56688;50.234;19.292;2022-12-20T06:11:43;99382.80;;;-0.21;73.21
69127;BME280;56688;50.234;19.292;2022-12-20T06:14:12;99373.05;;;-0.22;73.13
69127;BME280;56688;50.234;19.292;2022-12-20T06:16:44;99370.80;;;-0.22;73.48
69127;BME280;56688;50.234;19.292;2022-12-20T06:19:11;99365.33;;;-0.27;73.31
69127;BME280;56688;50.234;19.292;2022-12-20T06:21:46;99356.61;;;-0.30;73.53
69127;BME280;56688;50.234;19.292;2022-12-20T06:24:15;99356.08;;;-0.30;73.64
69127;BME280;56688;50.234;19.292;2022-12-20T06:26:44;99362.58;;;-0.28;73.62
69127;BME280;56688;50.234;19.292;2022-12-20T06:29:11;99363.69;;;-0.26;73.69
69127;BME280;56688;50.234;19.292;2022-12-20T06:31:45;99370.66;;;-0.26;73.26
69127;BME280;56688;50.234;19.292;2022-12-20T06:34:12;99368.95;;;-0.26;73.41
69127;BME280;56688;50.234;19.292;2022-12-20T06:36:40;99371.89;;;-0.28;73.24
69127;BME280;56688;50.234;19.292;2022-12-20T06:39:12;99379.56;;;-0.31;73.49
69127;BME280;56688;50.234;19.292;2022-12-20T06:41:48;99386.84;;;-0.32;73.48
69127;BME280;56688;50.234;19.292;2022-12-20T06:44:15;99387.90;;;-0.33;73.34
69127;BME280;56688;50.234;19.292;2022-12-20T06:46:42;99387.67;;;-0.32;73.44
69127;BME280;56688;50.234;19.292;2022-12-20T06:49:09;99394.77;;;-0.30;73.35
69127;BME280;56688;50.234;19.292;2022-12-20T06:51:36;99384.50;;;-0.32;73.37
69127;BME280;56688;50.234;19.292;2022-12-20T06:54:03;99378.23;;;-0.32;73.44
69127;BME280;56688;50.234;19.292;2022-12-20T06:56:32;99384.27;;;-0.33;73.44
69127;BME280;56688;50.234;19.292;2022-12-20T06:59:08;99382.45;;;-0.37;73.49
69127;BME280;56688;50.234;19.292;2022-12-20T07:01:35;99390.44;;;-0.36;73.68
69127;BME280;56688;50.234;19.292;2022-12-20T07:04:02;99391.30;;;-0.36;73.33
69127;BME280;56688;50.234;19.292;2022-12-20T07:06:29;99385.97;;;-0.35;73.76
69127;BME280;56688;50.234;19.292;2022-12-20T07:08:56;99384.38;;;-0.32;73.57
69127;BME280;56688;50.234;19.292;2022-12-20T07:11:22;99383.45;;;-0.28;73.44
69127;BME280;56688;50.234;19.292;2022-12-20T07:13:55;99382.69;;;-0.25;73.49
69127;BME280;56688;50.234;19.292;2022-12-20T07:16:22;99386.18;;;-0.22;73.51
69127;BME280;56688;50.234;19.292;2022-12-20T07:18:51;99388.11;;;-0.19;73.46
69127;BME280;56688;50.234;19.292;2022-12-20T07:21:18;99388.17;;;-0.18;73.16
69127;BME280;56688;50.234;19.292;2022-12-20T07:23:46;99381.35;;;-0.12;72.99
69127;BME280;56688;50.234;19.292;2022-12-20T07:26:14;99385.41;;;-0.05;73.05
69127;BME280;56688;50.234;19.292;2022-12-20T07:28:41;99384.66;;;0.07;72.90
69127;BME280;56688;50.234;19.292;2022-12-20T07:31:09;99378.33;;;0.18;72.62
69127;BME280;56688;50.234;19.292;2022-12-20T07:33:36;99383.71;;;0.27;72.28
69127;BME280;56688;50.234;19.292;2022-12-20T07:36:06;99388.54;;;0.36;72.15
69127;BME280;56688;50.234;19.292;2022-12-20T07:38:34;99393.55;;;0.47;72.17
69127;BME280;56688;50.234;19.292;2022-12-20T07:41:12;99390.09;;;0.57;71.88
69127;BME280;56688;50.234;19.292;2022-12-20T07:43:40;99387.05;;;0.66;71.39
69127;BME280;56688;50.234;19.292;2022-12-20T07:46:07;99392.06;;;0.74;70.84
69127;BME280;56688;50.234;19.292;2022-12-20T07:48:34;99388.21;;;0.82;70.90
69127;BME280;56688;50.234;19.292;2022-12-20T07:51:07;99379.55;;;0.91;70.45
69127;BME280;56688;50.234;19.292;2022-12-20T07:53:39;99376.21;;;0.98;70.10
69127;BME280;56688;50.234;19.292;2022-12-20T07:56:09;99374.25;;;1.03;69.75
69127;BME280;56688;50.234;19.292;2022-12-20T07:58:38;99367.98;;;1.08;69.63
69127;BME280;56688;50.234;19.292;2022-12-20T08:01:06;99355.94;;;1.09;68.95
69127;BME280;56688;50.234;19.292;2022-12-20T08:03:38;99355.38;;;1.10;68.99
69127;BME280;56688;50.234;19.292;2022-12-20T08:06:06;99349.30;;;1.11;68.47
69127;BME280;56688;50.234;19.292;2022-12-20T08:08:35;99345.45;;;1.14;68.79
69127;BME280;56688;50.234;19.292;2022-12-20T08:11:06;99340.91;;;1.24;68.37
69127;BME280;56688;50.234;19.292;2022-12-20T08:13:34;99349.73;;;1.31;68.12
69127;BME280;56688;50.234;19.292;2022-12-20T08:16:08;99352.88;;;1.38;68.00
69127;BME280;56688;50.234;19.292;2022-12-20T08:18:34;99358.48;;;1.46;67.91
69127;BME280;56688;50.234;19.292;2022-12-20T08:21:01;99355.52;;;1.47;67.92
69127;BME280;56688;50.234;19.292;2022-12-20T08:23:28;99370.55;;;1.56;67.64
69127;BME280;56688;50.234;19.292;2022-12-20T08:25:55;99375.15;;;1.58;67.71
69127;BME280;56688;50.234;19.292;2022-12-20T08:28:21;99367.55;;;1.58;67.40
69127;BME280;56688;50.234;19.292;2022-12-20T08:30:49;99358.14;;;1.62;67.67
69127;BME280;56688;50.234;19.292;2022-12-20T08:33:16;99351.45;;;1.70;67.77
69127;BME280;56688;50.234;19.292;2022-12-20T08:35:43;99355.18;;;1.86;67.21
69127;BME280;56688;50.234;19.292;2022-12-20T08:38:10;99359.27;;;2.00;66.92
69127;BME280;56688;50.234;19.292;2022-12-20T08:40:36;99361.98;;;2.03;66.77
69127;BME280;56688;50.234;19.292;2022-12-20T08:43:03;99364.48;;;2.03;66.53
69127;BME280;56688;50.234;19.292;2022-12-20T08:45:35;99368.13;;;2.04;66.81
69127;BME280;56688;50.234;19.292;2022-12-20T08:48:02;99374.70;;;2.02;66.73
69127;BME280;56688;50.234;19.292;2022-12-20T08:50:29;99379.67;;;2.04;66.61
69127;BME280;56688;50.234;19.292;2022-12-20T08:52:56;99377.31;;;2.10;66.58
69127;BME280;56688;50.234;19.292;2022-12-20T08:55:22;99372.56;;;2.15;66.48
69127;BME280;56688;50.234;19.292;2022-12-20T08:57:54;99367.92;;;2.18;66.30
69127;BME280;56688;50.234;19.292;2022-12-20T09:00:21;99366.48;;;2.26;66.58
69127;BME280;56688;50.234;19.292;2022-12-20T09:02:48;99354.52;;;2.42;66.18
69127;BME280;56688;50.234;19.292;2022-12-20T09:05:17;99345.46;;;2.50;65.04
69127;BME280;56688;50.234;19.292;2022-12-20T09:07:44;99344.94;;;2.57;65.36
69127;BME280;56688;50.234;19.292;2022-12-20T09:10:11;99344.16;;;2.74;65.10
69127;BME280;56688;50.234;19.292;2022-12-20T09:12:38;99343.50;;;2.87;64.90
69127;BME280;56688;50.234;19.292;2022-12-20T09:15:06;99344.83;;;2.97;64.54
69127;BME280;56688;50.234;19.292;2022-12-20T09:17:33;99344.57;;;3.16;64.06
69127;BME280;56688;50.234;19.292;2022-12-20T09:20:00;99345.74;;;3.41;63.24
69127;BME280;56688;50.234;19.292;2022-12-20T09:22:28;99335.41;;;3.75;62.43
69127;BME280;56688;50.234;19.292;2022-12-20T09:24:55;99337.07;;;3.92;61.43
69127;BME280;56688;50.234;19.292;2022-12-20T09:27:22;99332.90;;;3.96;61.54
69127;BME280;56688;50.234;19.292;2022-12-20T09:29:49;99327.34;;;3.96;61.29
69127;BME280;56688;50.234;19.292;2022-12-20T09:32:16;99327.09;;;3.97;61.15
69127;BME280;56688;50.234;19.292;2022-12-20T09:34:42;99331.86;;;3.93;60.96
69127;BME280;56688;50.234;19.292;2022-12-20T09:37:09;99318.19;;;3.90;61.12
69127;BME280;56688;50.234;19.292;2022-12-20T09:39:36;99312.23;;;3.85;61.43
69127;BME280;56688;50.234;19.292;2022-12-20T09:42:06;99305.83;;;3.86;61.47
69127;BME280;56688;50.234;19.292;2022-12-20T09:44:38;99312.70;;;3.86;61.73
69127;BME280;56688;50.234;19.292;2022-12-20T09:47:14;99322.65;;;3.94;61.42
69127;BME280;56688;50.234;19.292;2022-12-20T09:49:46;99324.04;;;3.98;61.20
69127;BME280;56688;50.234;19.292;2022-12-20T09:54:50;99324.55;;;3.96;61.14
69127;BME280;56688;50.234;19.292;2022-12-20T09:57:37;99314.62;;;3.97;61.01
69127;BME280;56688;50.234;19.292;2022-12-20T10:00:12;99315.17;;;3.92;61.11
69127;BME280;56688;50.234;19.292;2022-12-20T10:02:40;99308.88;;;3.89;60.98
69127;BME280;56688;50.234;19.292;2022-12-20T10:05:37;99302.16;;;3.92;61.00
69127;BME280;56688;50.234;19.292;2022-12-20T10:08:36;99293.48;;;4.11;60.88
69127;BME280;56688;50.234;19.292;2022-12-20T10:11:11;99287.17;;;4.49;59.96
69127;BME280;56688;50.234;19.292;2022-12-20T10:16:37;99263.34;;;5.41;57.40
69127;BME280;56688;50.234;19.292;2022-12-20T10:19:19;99254.75;;;5.74;56.44
69127;BME280;56688;50.234;19.292;2022-12-20T10:21:58;99259.13;;;5.82;55.56
69127;BME280;56688;50.234;19.292;2022-12-20T10:24:31;99264.70;;;5.79;55.63
69127;BME280;56688;50.234;19.292;2022-12-20T10:27:15;99260.80;;;5.75;55.69
69127;BME280;56688;50.234;19.292;2022-12-20T10:29:44;99258.04;;;5.72;56.02
69127;BME280;56688;50.234;19.292;2022-12-20T10:32:15;99261.59;;;5.63;56.10
69127;BME280;56688;50.234;19.292;2022-12-20T10:34:51;99262.13;;;5.49;56.50
69127;BME280;56688;50.234;19.292;2022-12-20T10:37:18;99258.65;;;5.41;57.07
69127;BME280;56688;50.234;19.292;2022-12-20T10:39:48;99256.14;;;5.35;57.13
69127;BME280;56688;50.234;19.292;2022-12-20T10:42:38;99257.44;;;5.22;57.17
69127;BME280;56688;50.234;19.292;2022-12-20T10:47:44;99265.48;;;4.89;57.52
69127;BME280;56688;50.234;19.292;2022-12-20T10:52:39;99241.88;;;4.46;58.20
69127;BME280;56688;50.234;19.292;2022-12-20T10:55:30;99230.89;;;4.28;58.54
69127;BME280;56688;50.234;19.292;2022-12-20T10:58:03;99224.02;;;4.13;59.36
69127;BME280;56688;50.234;19.292;2022-12-20T11:00:32;99219.71;;;4.04;59.77
69127;BME280;56688;50.234;19.292;2022-12-20T11:03:10;99217.17;;;3.94;60.20
69127;BME280;56688;50.234;19.292;2022-12-20T11:05:38;99214.82;;;3.88;59.80
69127;BME280;56688;50.234;19.292;2022-12-20T11:08:13;99217.35;;;3.80;60.14
69127;BME280;56688;50.234;19.292;2022-12-20T11:11:11;99216.77;;;3.68;60.59
69127;BME280;56688;50.234;19.292;2022-12-20T11:13:39;99209.21;;;3.54;60.79
69127;BME280;56688;50.234;19.292;2022-12-20T11:21:58;99198.18;;;3.26;62.09
69127;BME280;56688;50.234;19.292;2022-12-20T11:30:03;99171.36;;;3.28;62.84
69127;BME280;56688;50.234;19.292;2022-12-20T11:45:53;99185.54;;;3.64;62.06
69127;BME280;56688;50.234;19.292;2022-12-20T11:48:38;99185.33;;;3.73;61.82
69127;BME280;56688;50.234;19.292;2022-12-20T11:51:23;99185.30;;;3.79;61.64
69127;BME280;56688;50.234;19.292;2022-12-20T11:56:38;99181.31;;;3.91;61.62
69127;BME280;56688;50.234;19.292;2022-12-20T11:59:18;99173.86;;;3.92;60.94
69127;BME280;56688;50.234;19.292;2022-12-20T12:02:10;99170.90;;;3.89;60.96
69127;BME280;56688;50.234;19.292;2022-12-20T12:04:44;99173.88;;;3.87;61.33
69127;BME280;56688;50.234;19.292;2022-12-20T12:07:18;99170.45;;;3.84;60.93
69127;BME280;56688;50.234;19.292;2022-12-20T12:09:56;99169.77;;;3.80;61.31
69127;BME280;56688;50.234;19.292;2022-12-20T12:12:36;99168.59;;;3.73;61.50
69127;BME280;56688;50.234;19.292;2022-12-20T12:15:25;99170.58;;;3.66;61.82
69127;BME280;56688;50.234;19.292;2022-12-20T12:18:13;99160.31;;;3.64;62.09
69127;BME280;56688;50.234;19.292;2022-12-20T12:28:52;99163.27;;;3.44;61.79
69127;BME280;56688;50.234;19.292;2022-12-20T12:31:27;99161.04;;;3.39;61.98
69127;BME280;56688;50.234;19.292;2022-12-20T12:34:16;99160.30;;;3.37;62.23
69127;BME280;56688;50.234;19.292;2022-12-20T12:44:54;99151.33;;;3.30;62.50
69127;BME280;56688;50.234;19.292;2022-12-20T12:47:36;99149.86;;;3.23;62.22
69127;BME280;56688;50.234;19.292;2022-12-20T12:50:13;99146.66;;;3.14;62.67
69127;BME280;56688;50.234;19.292;2022-12-20T12:52:48;99143.73;;;3.10;62.82
69127;BME280;56688;50.234;19.292;2022-12-20T13:16:51;99131.88;;;3.10;63.93
69127;BME280;56688;50.234;19.292;2022-12-20T13:19:42;99135.33;;;3.09;64.13
69127;BME280;56688;50.234;19.292;2022-12-20T13:22:21;99132.27;;;3.10;64.56
69127;BME280;56688;50.234;19.292;2022-12-20T13:24:59;99126.90;;;3.06;65.05
69127;BME280;56688;50.234;19.292;2022-12-20T13:38:04;99122.58;;;3.01;64.82
69127;BME280;56688;50.234;19.292;2022-12-20T13:46:11;99138.48;;;2.89;64.46
69127;BME280;56688;50.234;19.292;2022-12-20T13:51:17;99147.12;;;2.83;65.34
69127;BME280;56688;50.234;19.292;2022-12-20T13:54:00;99143.75;;;2.79;65.82
69127;BME280;56688;50.234;19.292;2022-12-20T14:01:49;99132.73;;;2.58;66.21
69127;BME280;56688;50.234;19.292;2022-12-20T14:04:18;99138.86;;;2.50;66.67
69127;BME280;56688;50.234;19.292;2022-12-20T14:06:53;99142.23;;;2.45;66.53
69127;BME280;56688;50.234;19.292;2022-12-20T14:09:30;99143.92;;;2.41;66.71
69127;BME280;56688;50.234;19.292;2022-12-20T14:12:08;99143.09;;;2.39;66.71
69127;BME280;56688;50.234;19.292;2022-12-20T14:14:42;99136.70;;;2.35;66.81
69127;BME280;56688;50.234;19.292;2022-12-20T14:17:26;99138.02;;;2.29;67.00
69127;BME280;56688;50.234;19.292;2022-12-20T14:22:33;99133.27;;;2.18;67.21
69127;BME280;56688;50.234;19.292;2022-12-20T14:25:01;99132.48;;;2.10;67.38
69127;BME280;56688;50.234;19.292;2022-12-20T14:27:35;99138.71;;;2.05;68.13
69127;BME280;56688;50.234;19.292;2022-12-20T14:30:04;99146.20;;;2.01;68.71
69127;BME280;56688;50.234;19.292;2022-12-20T14:32:31;99141.58;;;2.00;68.50
69127;BME280;56688;50.234;19.292;2022-12-20T14:34:58;99141.45;;;1.96;68.34
69127;BME280;56688;50.234;19.292;2022-12-20T14:37:31;99138.48;;;1.92;68.39
69127;BME280;56688;50.234;19.292;2022-12-20T14:40:15;99138.67;;;1.89;68.31
69127;BME280;56688;50.234;19.292;2022-12-20T14:42:43;99140.09;;;1.87;68.81
69127;BME280;56688;50.234;19.292;2022-12-20T14:48:02;99147.75;;;1.79;68.80
69127;BME280;56688;50.234;19.292;2022-12-20T14:50:35;99150.16;;;1.70;69.01
69127;BME280;56688;50.234;19.292;2022-12-20T14:53:03;99140.94;;;1.66;69.42
69127;BME280;56688;50.234;19.292;2022-12-20T14:55:33;99139.02;;;1.64;69.76
69127;BME280;56688;50.234;19.292;2022-12-20T14:58:27;99142.48;;;1.64;69.81
69127;BME280;56688;50.234;19.292;2022-12-20T15:00:58;99131.41;;;1.63;69.97
69127;BME280;56688;50.234;19.292;2022-12-20T15:03:26;99131.54;;;1.61;70.01
69127;BME280;56688;50.234;19.292;2022-12-20T15:05:57;99125.45;;;1.60;70.18
69127;BME280;56688;50.234;19.292;2022-12-20T15:10:58;99125.38;;;1.50;70.31
69127;BME280;56688;50.234;19.292;2022-12-20T15:13:29;99125.94;;;1.45;70.84
69127;BME280;56688;50.234;19.292;2022-12-20T15:15:58;99120.88;;;1.42;70.91
69127;BME280;56688;50.234;19.292;2022-12-20T15:18:26;99120.73;;;1.42;71.45
69127;BME280;56688;50.234;19.292;2022-12-20T15:21:00;99115.16;;;1.43;71.63
69127;BME280;56688;50.234;19.292;2022-12-20T15:23:29;99116.77;;;1.38;72.04